sensor_id;sensor_type;location;lat;lon;timestamp;P1;durP1;ratioP1;P2;durP2;ratioP2
23406;SDS011;11876;53.438;18.942;2024-01-07T00:01:11;11.07;;;5.27;;
23406;SDS011;11876;53.438;18.942;2024-01-07T00:04:14;12.23;;;6.00;;
23406;SDS011;11876;53.438;18.942;2024-01-07T00:07:18;14.65;;;6.30;;
23406;SDS011;11876;53.438;18.942;2024-01-07T00:10:22;9.15;;;5.35;;
23406;SDS011;11876;53.438;18.942;2024-01-07T00:13:25;7.07;;;4.28;;
23406;SDS011;11876;53.438;18.942;2024-01-07T00:16:27;9.10;;;5.25;;
23406;SDS011;11876;53.438;18.942;2024-01-07T00:19:29;9.52;;;5.07;;
23406;SDS011;11876;53.438;18.942;2024-01-07T00:22:37;9.30;;;5.30;;
23406;SDS011;11876;53.438;18.942;2024-01-07T00:25:39;8.32;;;5.22;;
23406;SDS011;11876;53.438;18.942;2024-01-07T00:28:42;11.52;;;5.97;;
23406;SDS011;11876;53.438;18.942;2024-01-07T00:31:44;15.50;;;7.43;;
23406;SDS011;11876;53.438;18.942;2024-01-07T00:34:46;16.02;;;7.90;;
23406;SDS011;11876;53.438;18.942;2024-01-07T00:37:52;8.07;;;5.28;;
23406;SDS011;11876;53.438;18.942;2024-01-07T00:40:54;10.60;;;5.57;;
23406;SDS011;11876;53.438;18.942;2024-01-07T00:43:57;11.60;;;6.32;;
23406;SDS011;11876;53.438;18.942;2024-01-07T00:46:59;10.45;;;5.72;;
23406;SDS011;11876;53.438;18.942;2024-01-07T00:50:01;11.27;;;6.25;;
23406;SDS011;11876;53.438;18.942;2024-01-07T00:53:04;9.10;;;5.50;;
23406;SDS011;11876;53.438;18.942;2024-01-07T00:56:06;9.05;;;5.82;;
23406;SDS011;11876;53.438;18.942;2024-01-07T00:59:09;6.32;;;4.40;;
23406;SDS011;11876;53.438;18.942;2024-01-07T01:02:11;10.03;;;4.87;;
23406;SDS011;11876;53.438;18.942;2024-01-07T01:05:14;10.55;;;6.13;;
23406;SDS011;11876;53.438;18.942;2024-01-07T01:08:16;8.50;;;5.50;;
23406;SDS011;11876;53.438;18.942;2024-01-07T01:11:18;6.90;;;4.17;;
23406;SDS011;11876;53.438;18.942;2024-01-07T01:14:22;8.60;;;5.78;;
23406;SDS011;11876;53.438;18.942;2024-01-07T01:17:24;9.38;;;5.97;;
23406;SDS011;11876;53.438;18.942;2024-01-07T01:20:26;12.03;;;6.73;;
23406;SDS011;11876;53.438;18.942;2024-01-07T01:23:29;9.70;;;5.57;;
23406;SDS011;11876;53.438;18.942;2024-01-07T01:26:32;7.07;;;4.38;;
23406;SDS011;11876;53.438;18.942;2024-01-07T01:29:35;7.35;;;5.32;;
23406;SDS011;11876;53.438;18.942;2024-01-07T01:32:38;6.40;;;4.30;;
23406;SDS011;11876;53.438;18.942;2024-01-07T01:38:43;8.02;;;4.70;;
23406;SDS011;11876;53.438;18.942;2024-01-07T01:41:46;7.15;;;5.35;;
23406;SDS011;11876;53.438;18.942;2024-01-07T01:44:48;6.07;;;4.90;;
23406;SDS011;11876;53.438;18.942;2024-01-07T01:47:51;6.07;;;4.90;;
23406;SDS011;11876;53.438;18.942;2024-01-07T01:50:54;7.35;;;5.50;;
23406;SDS011;11876;53.438;18.942;2024-01-07T01:54:00;7.72;;;5.35;;
23406;SDS011;11876;53.438;18.942;2024-01-07T01:57:02;6.03;;;4.38;;
23406;SDS011;11876;53.438;18.942;2024-01-07T02:00:05;5.30;;;3.78;;
23406;SDS011;11876;53.438;18.942;2024-01-07T02:03:08;7.30;;;5.28;;
23406;SDS011;11876;53.438;18.942;2024-01-07T02:06:11;6.63;;;4.85;;
23406;SDS011;11876;53.438;18.942;2024-01-07T02:09:15;6.63;;;5.13;;
23406;SDS011;11876;53.438;18.942;2024-01-07T02:12:17;6.55;;;4.25;;
23406;SDS011;11876;53.438;18.942;2024-01-07T02:15:20;11.23;;;5.47;;
23406;SDS011;11876;53.438;18.942;2024-01-07T02:18:22;9.02;;;3.67;;
23406;SDS011;11876;53.438;18.942;2024-01-07T02:21:28;11.30;;;6.03;;
23406;SDS011;11876;53.438;18.942;2024-01-07T02:24:31;8.23;;;4.23;;
23406;SDS011;11876;53.438;18.942;2024-01-07T02:30:36;8.52;;;5.60;;
23406;SDS011;11876;53.438;18.942;2024-01-07T02:33:39;10.63;;;5.57;;
23406;SDS011;11876;53.438;18.942;2024-01-07T02:36:42;7.65;;;4.97;;
23406;SDS011;11876;53.438;18.942;2024-01-07T02:39:44;6.45;;;5.13;;
23406;SDS011;11876;53.438;18.942;2024-01-07T02:43:01;8.90;;;5.70;;
23406;SDS011;11876;53.438;18.942;2024-01-07T02:46:03;5.00;;;3.90;;
23406;SDS011;11876;53.438;18.942;2024-01-07T02:49:06;8.30;;;6.15;;
23406;SDS011;11876;53.438;18.942;2024-01-07T02:52:08;9.32;;;5.53;;
23406;SDS011;11876;53.438;18.942;2024-01-07T02:55:11;8.80;;;6.30;;
23406;SDS011;11876;53.438;18.942;2024-01-07T02:58:13;7.90;;;5.07;;
23406;SDS011;11876;53.438;18.942;2024-01-07T03:01:16;8.10;;;4.83;;
23406;SDS011;11876;53.438;18.942;2024-01-07T03:04:18;7.22;;;5.13;;
23406;SDS011;11876;53.438;18.942;2024-01-07T03:07:21;10.43;;;6.20;;
23406;SDS011;11876;53.438;18.942;2024-01-07T03:10:23;9.25;;;5.68;;
23406;SDS011;11876;53.438;18.942;2024-01-07T03:13:27;9.88;;;6.55;;
23406;SDS011;11876;53.438;18.942;2024-01-07T03:16:30;10.18;;;6.07;;
23406;SDS011;11876;53.438;18.942;2024-01-07T03:19:32;9.98;;;5.22;;
23406;SDS011;11876;53.438;18.942;2024-01-07T03:22:35;10.52;;;6.22;;
23406;SDS011;11876;53.438;18.942;2024-01-07T03:25:38;12.00;;;7.15;;
23406;SDS011;11876;53.438;18.942;2024-01-07T03:28:40;9.80;;;6.20;;
23406;SDS011;11876;53.438;18.942;2024-01-07T03:31:42;9.65;;;6.20;;
23406;SDS011;11876;53.438;18.942;2024-01-07T03:34:45;20.13;;;10.35;;
23406;SDS011;11876;53.438;18.942;2024-01-07T03:37:48;7.47;;;5.07;;
23406;SDS011;11876;53.438;18.942;2024-01-07T03:40:50;11.00;;;6.45;;
23406;SDS011;11876;53.438;18.942;2024-01-07T03:43:53;8.13;;;5.40;;
23406;SDS011;11876;53.438;18.942;2024-01-07T03:46:55;9.20;;;6.13;;
23406;SDS011;11876;53.438;18.942;2024-01-07T03:49:57;6.73;;;4.57;;
23406;SDS011;11876;53.438;18.942;2024-01-07T03:53:00;8.40;;;5.28;;
23406;SDS011;11876;53.438;18.942;2024-01-07T03:56:02;13.10;;;7.40;;
23406;SDS011;11876;53.438;18.942;2024-01-07T03:59:05;10.10;;;6.13;;
23406;SDS011;11876;53.438;18.942;2024-01-07T04:02:09;11.87;;;7.00;;
23406;SDS011;11876;53.438;18.942;2024-01-07T04:05:13;10.40;;;6.50;;
23406;SDS011;11876;53.438;18.942;2024-01-07T04:08:16;12.00;;;6.95;;
23406;SDS011;11876;53.438;18.942;2024-01-07T04:11:19;8.10;;;5.88;;
23406;SDS011;11876;53.438;18.942;2024-01-07T04:14:22;8.93;;;5.53;;
23406;SDS011;11876;53.438;18.942;2024-01-07T04:17:24;10.13;;;5.37;;
23406;SDS011;11876;53.438;18.942;2024-01-07T04:20:27;8.60;;;4.87;;
23406;SDS011;11876;53.438;18.942;2024-01-07T04:23:29;13.30;;;7.13;;
23406;SDS011;11876;53.438;18.942;2024-01-07T04:26:32;10.27;;;5.27;;
23406;SDS011;11876;53.438;18.942;2024-01-07T04:29:34;10.13;;;5.23;;
23406;SDS011;11876;53.438;18.942;2024-01-07T04:32:36;12.50;;;7.57;;
23406;SDS011;11876;53.438;18.942;2024-01-07T04:35:39;11.23;;;7.15;;
23406;SDS011;11876;53.438;18.942;2024-01-07T04:38:41;10.70;;;6.90;;
23406;SDS011;11876;53.438;18.942;2024-01-07T04:41:44;9.03;;;5.70;;
23406;SDS011;11876;53.438;18.942;2024-01-07T04:44:47;12.38;;;7.78;;
23406;SDS011;11876;53.438;18.942;2024-01-07T04:47:49;10.50;;;6.13;;
23406;SDS011;11876;53.438;18.942;2024-01-07T04:50:52;13.35;;;7.38;;
23406;SDS011;11876;53.438;18.942;2024-01-07T04:53:55;10.55;;;6.00;;
23406;SDS011;11876;53.438;18.942;2024-01-07T04:56:57;11.60;;;5.75;;
23406;SDS011;11876;53.438;18.942;2024-01-07T05:00:00;11.18;;;6.13;;
23406;SDS011;11876;53.438;18.942;2024-01-07T05:03:02;16.27;;;7.95;;
23406;SDS011;11876;53.438;18.942;2024-01-07T05:06:05;14.90;;;8.68;;
23406;SDS011;11876;53.438;18.942;2024-01-07T05:09:08;11.88;;;7.32;;
23406;SDS011;11876;53.438;18.942;2024-01-07T05:12:11;14.70;;;8.77;;
23406;SDS011;11876;53.438;18.942;2024-01-07T05:15:13;15.40;;;8.52;;
23406;SDS011;11876;53.438;18.942;2024-01-07T05:18:16;14.15;;;8.10;;
23406;SDS011;11876;53.438;18.942;2024-01-07T05:21:20;21.83;;;11.70;;
23406;SDS011;11876;53.438;18.942;2024-01-07T05:24:22;16.50;;;9.65;;
23406;SDS011;11876;53.438;18.942;2024-01-07T05:27:25;15.88;;;9.57;;
23406;SDS011;11876;53.438;18.942;2024-01-07T05:30:28;19.40;;;11.75;;
23406;SDS011;11876;53.438;18.942;2024-01-07T05:33:30;9.43;;;6.50;;
23406;SDS011;11876;53.438;18.942;2024-01-07T05:36:33;10.75;;;7.88;;
23406;SDS011;11876;53.438;18.942;2024-01-07T05:39:36;14.13;;;8.77;;
23406;SDS011;11876;53.438;18.942;2024-01-07T05:42:38;14.88;;;8.82;;
23406;SDS011;11876;53.438;18.942;2024-01-07T05:45:41;13.57;;;8.80;;
23406;SDS011;11876;53.438;18.942;2024-01-07T05:48:44;16.92;;;10.30;;
23406;SDS011;11876;53.438;18.942;2024-01-07T05:51:47;16.60;;;10.07;;
23406;SDS011;11876;53.438;18.942;2024-01-07T05:54:50;17.65;;;11.13;;
23406;SDS011;11876;53.438;18.942;2024-01-07T05:57:53;21.95;;;12.32;;
23406;SDS011;11876;53.438;18.942;2024-01-07T06:00:55;14.25;;;8.25;;
23406;SDS011;11876;53.438;18.942;2024-01-07T06:03:58;15.02;;;8.98;;
23406;SDS011;11876;53.438;18.942;2024-01-07T06:07:00;22.73;;;12.77;;
23406;SDS011;11876;53.438;18.942;2024-01-07T06:10:03;21.60;;;11.55;;
23406;SDS011;11876;53.438;18.942;2024-01-07T06:13:06;16.93;;;9.40;;
23406;SDS011;11876;53.438;18.942;2024-01-07T06:16:09;19.58;;;9.45;;
23406;SDS011;11876;53.438;18.942;2024-01-07T06:19:12;17.48;;;10.25;;
23406;SDS011;11876;53.438;18.942;2024-01-07T06:22:16;17.87;;;10.33;;
23406;SDS011;11876;53.438;18.942;2024-01-07T06:25:18;15.20;;;7.37;;
23406;SDS011;11876;53.438;18.942;2024-01-07T06:28:22;17.53;;;9.60;;
23406;SDS011;11876;53.438;18.942;2024-01-07T06:31:24;16.08;;;9.65;;
23406;SDS011;11876;53.438;18.942;2024-01-07T06:34:32;16.03;;;9.60;;
23406;SDS011;11876;53.438;18.942;2024-01-07T06:37:35;17.70;;;10.57;;
23406;SDS011;11876;53.438;18.942;2024-01-07T06:40:38;16.23;;;9.13;;
23406;SDS011;11876;53.438;18.942;2024-01-07T06:43:40;19.83;;;11.07;;
23406;SDS011;11876;53.438;18.942;2024-01-07T06:46:43;20.30;;;13.45;;
23406;SDS011;11876;53.438;18.942;2024-01-07T06:49:46;25.20;;;12.98;;
23406;SDS011;11876;53.438;18.942;2024-01-07T06:52:49;16.75;;;11.75;;
23406;SDS011;11876;53.438;18.942;2024-01-07T06:55:52;21.03;;;11.17;;
23406;SDS011;11876;53.438;18.942;2024-01-07T06:58:55;19.88;;;11.73;;
23406;SDS011;11876;53.438;18.942;2024-01-07T07:01:57;16.33;;;9.43;;
23406;SDS011;11876;53.438;18.942;2024-01-07T07:08:03;17.27;;;10.30;;
23406;SDS011;11876;53.438;18.942;2024-01-07T07:11:06;16.27;;;9.10;;
23406;SDS011;11876;53.438;18.942;2024-01-07T07:14:08;19.20;;;10.48;;
23406;SDS011;11876;53.438;18.942;2024-01-07T07:17:11;17.55;;;10.20;;
23406;SDS011;11876;53.438;18.942;2024-01-07T07:20:14;17.50;;;8.48;;
23406;SDS011;11876;53.438;18.942;2024-01-07T07:23:17;17.50;;;9.48;;
23406;SDS011;11876;53.438;18.942;2024-01-07T07:26:19;20.35;;;11.32;;
23406;SDS011;11876;53.438;18.942;2024-01-07T07:29:22;14.75;;;8.27;;
23406;SDS011;11876;53.438;18.942;2024-01-07T07:32:25;12.30;;;8.18;;
23406;SDS011;11876;53.438;18.942;2024-01-07T07:35:27;14.38;;;8.52;;
23406;SDS011;11876;53.438;18.942;2024-01-07T07:38:29;18.25;;;10.38;;
23406;SDS011;11876;53.438;18.942;2024-01-07T07:41:32;19.92;;;11.95;;
23406;SDS011;11876;53.438;18.942;2024-01-07T07:44:34;20.05;;;12.40;;
23406;SDS011;11876;53.438;18.942;2024-01-07T07:47:37;14.18;;;8.48;;
23406;SDS011;11876;53.438;18.942;2024-01-07T07:50:42;26.60;;;17.27;;
23406;SDS011;11876;53.438;18.942;2024-01-07T07:53:44;22.88;;;14.07;;
23406;SDS011;11876;53.438;18.942;2024-01-07T07:56:47;19.90;;;11.13;;
23406;SDS011;11876;53.438;18.942;2024-01-07T07:59:51;23.65;;;13.52;;
23406;SDS011;11876;53.438;18.942;2024-01-07T08:02:54;27.20;;;14.93;;
23406;SDS011;11876;53.438;18.942;2024-01-07T08:06:00;20.73;;;11.57;;
23406;SDS011;11876;53.438;18.942;2024-01-07T08:09:02;23.40;;;13.52;;
23406;SDS011;11876;53.438;18.942;2024-01-07T08:12:08;15.38;;;9.55;;
23406;SDS011;11876;53.438;18.942;2024-01-07T08:15:13;33.10;;;19.23;;
23406;SDS011;11876;53.438;18.942;2024-01-07T08:18:18;20.87;;;13.53;;
23406;SDS011;11876;53.438;18.942;2024-01-07T08:21:21;29.00;;;16.13;;
23406;SDS011;11876;53.438;18.942;2024-01-07T08:24:24;16.47;;;10.53;;
23406;SDS011;11876;53.438;18.942;2024-01-07T08:27:27;19.83;;;9.65;;
23406;SDS011;11876;53.438;18.942;2024-01-07T08:30:30;28.70;;;12.33;;
23406;SDS011;11876;53.438;18.942;2024-01-07T08:33:33;29.67;;;14.02;;
23406;SDS011;11876;53.438;18.942;2024-01-07T08:36:36;31.55;;;14.50;;
23406;SDS011;11876;53.438;18.942;2024-01-07T08:39:38;17.38;;;9.90;;
23406;SDS011;11876;53.438;18.942;2024-01-07T08:42:40;18.30;;;10.75;;
23406;SDS011;11876;53.438;18.942;2024-01-07T08:45:43;19.60;;;12.57;;
23406;SDS011;11876;53.438;18.942;2024-01-07T08:48:45;11.38;;;7.50;;
23406;SDS011;11876;53.438;18.942;2024-01-07T08:51:48;24.58;;;10.57;;
23406;SDS011;11876;53.438;18.942;2024-01-07T08:54:51;17.65;;;8.82;;
23406;SDS011;11876;53.438;18.942;2024-01-07T08:57:53;19.55;;;10.75;;
23406;SDS011;11876;53.438;18.942;2024-01-07T09:00:56;16.25;;;10.35;;
23406;SDS011;11876;53.438;18.942;2024-01-07T09:03:58;23.35;;;9.75;;
23406;SDS011;11876;53.438;18.942;2024-01-07T09:07:01;26.40;;;14.43;;
23406;SDS011;11876;53.438;18.942;2024-01-07T09:10:04;25.35;;;13.45;;
23406;SDS011;11876;53.438;18.942;2024-01-07T09:13:10;22.30;;;11.17;;
23406;SDS011;11876;53.438;18.942;2024-01-07T09:16:13;20.05;;;11.30;;
23406;SDS011;11876;53.438;18.942;2024-01-07T09:19:15;22.05;;;10.25;;
23406;SDS011;11876;53.438;18.942;2024-01-07T09:22:19;19.73;;;10.80;;
23406;SDS011;11876;53.438;18.942;2024-01-07T09:25:21;19.73;;;9.93;;
23406;SDS011;11876;53.438;18.942;2024-01-07T09:28:24;21.30;;;9.88;;
23406;SDS011;11876;53.438;18.942;2024-01-07T09:31:26;13.50;;;7.57;;
23406;SDS011;11876;53.438;18.942;2024-01-07T09:34:29;20.23;;;11.70;;
23406;SDS011;11876;53.438;18.942;2024-01-07T09:37:32;24.67;;;12.90;;
23406;SDS011;11876;53.438;18.942;2024-01-07T09:40:35;30.52;;;15.93;;
23406;SDS011;11876;53.438;18.942;2024-01-07T09:43:37;20.00;;;12.18;;
23406;SDS011;11876;53.438;18.942;2024-01-07T09:46:39;25.23;;;12.70;;
23406;SDS011;11876;53.438;18.942;2024-01-07T09:49:43;22.73;;;10.97;;
23406;SDS011;11876;53.438;18.942;2024-01-07T09:52:47;26.00;;;13.80;;
23406;SDS011;11876;53.438;18.942;2024-01-07T09:55:57;18.90;;;10.55;;
23406;SDS011;11876;53.438;18.942;2024-01-07T09:59:07;29.97;;;13.87;;
23406;SDS011;11876;53.438;18.942;2024-01-07T10:02:10;26.40;;;13.88;;
23406;SDS011;11876;53.438;18.942;2024-01-07T10:05:13;25.92;;;12.10;;
23406;SDS011;11876;53.438;18.942;2024-01-07T10:08:16;21.08;;;11.93;;
23406;SDS011;11876;53.438;18.942;2024-01-07T10:11:20;17.48;;;9.05;;
23406;SDS011;11876;53.438;18.942;2024-01-07T10:14:24;31.00;;;13.30;;
23406;SDS011;11876;53.438;18.942;2024-01-07T10:17:29;21.33;;;12.20;;
23406;SDS011;11876;53.438;18.942;2024-01-07T10:20:32;20.67;;;12.00;;
23406;SDS011;11876;53.438;18.942;2024-01-07T10:23:40;21.43;;;11.93;;
23406;SDS011;11876;53.438;18.942;2024-01-07T10:26:43;24.27;;;11.18;;
23406;SDS011;11876;53.438;18.942;2024-01-07T10:29:47;23.70;;;11.57;;
23406;SDS011;11876;53.438;18.942;2024-01-07T10:32:58;23.67;;;13.07;;
23406;SDS011;11876;53.438;18.942;2024-01-07T10:36:02;22.17;;;12.97;;
23406;SDS011;11876;53.438;18.942;2024-01-07T10:39:09;17.73;;;10.73;;
23406;SDS011;11876;53.438;18.942;2024-01-07T10:42:11;26.10;;;10.73;;
23406;SDS011;11876;53.438;18.942;2024-01-07T10:45:15;19.85;;;11.02;;
23406;SDS011;11876;53.438;18.942;2024-01-07T10:48:17;38.00;;;11.95;;
23406;SDS011;11876;53.438;18.942;2024-01-07T10:51:21;32.87;;;16.27;;
23406;SDS011;11876;53.438;18.942;2024-01-07T10:54:24;27.77;;;16.13;;
23406;SDS011;11876;53.438;18.942;2024-01-07T11:00:37;23.07;;;12.43;;
23406;SDS011;11876;53.438;18.942;2024-01-07T11:10:44;23.27;;;12.33;;
23406;SDS011;11876;53.438;18.942;2024-01-07T11:13:54;21.00;;;11.93;;
23406;SDS011;11876;53.438;18.942;2024-01-07T11:17:00;32.07;;;12.93;;
23406;SDS011;11876;53.438;18.942;2024-01-07T11:20:05;20.10;;;10.90;;
23406;SDS011;11876;53.438;18.942;2024-01-07T11:26:34;19.60;;;10.93;;
23406;SDS011;11876;53.438;18.942;2024-01-07T11:29:37;15.38;;;10.23;;
23406;SDS011;11876;53.438;18.942;2024-01-07T11:32:40;15.18;;;8.95;;
23406;SDS011;11876;53.438;18.942;2024-01-07T11:35:59;15.65;;;8.80;;
23406;SDS011;11876;53.438;18.942;2024-01-07T11:39:04;18.63;;;10.13;;
23406;SDS011;11876;53.438;18.942;2024-01-07T11:42:10;19.13;;;10.73;;
23406;SDS011;11876;53.438;18.942;2024-01-07T11:45:16;18.07;;;10.20;;
23406;SDS011;11876;53.438;18.942;2024-01-07T11:48:19;17.98;;;10.27;;
23406;SDS011;11876;53.438;18.942;2024-01-07T11:51:21;12.70;;;8.60;;
23406;SDS011;11876;53.438;18.942;2024-01-07T11:54:23;19.17;;;10.90;;
23406;SDS011;11876;53.438;18.942;2024-01-07T11:57:26;15.68;;;8.90;;
23406;SDS011;11876;53.438;18.942;2024-01-07T12:00:32;25.02;;;11.48;;
23406;SDS011;11876;53.438;18.942;2024-01-07T12:03:36;22.17;;;13.37;;
23406;SDS011;11876;53.438;18.942;2024-01-07T12:09:42;18.50;;;10.73;;
23406;SDS011;11876;53.438;18.942;2024-01-07T12:12:44;18.58;;;11.15;;
23406;SDS011;11876;53.438;18.942;2024-01-07T12:15:47;19.60;;;12.48;;
23406;SDS011;11876;53.438;18.942;2024-01-07T12:18:50;20.23;;;9.05;;
23406;SDS011;11876;53.438;18.942;2024-01-07T12:22:08;22.20;;;12.65;;
23406;SDS011;11876;53.438;18.942;2024-01-07T12:25:10;24.13;;;12.33;;
23406;SDS011;11876;53.438;18.942;2024-01-07T12:28:13;36.10;;;15.60;;
23406;SDS011;11876;53.438;18.942;2024-01-07T12:31:15;32.33;;;18.33;;
23406;SDS011;11876;53.438;18.942;2024-01-07T12:34:18;23.35;;;12.48;;
23406;SDS011;11876;53.438;18.942;2024-01-07T12:37:28;42.90;;;23.37;;
23406;SDS011;11876;53.438;18.942;2024-01-07T12:40:30;31.43;;;14.93;;
23406;SDS011;11876;53.438;18.942;2024-01-07T12:43:33;19.20;;;12.32;;
23406;SDS011;11876;53.438;18.942;2024-01-07T12:46:35;21.42;;;12.55;;
23406;SDS011;11876;53.438;18.942;2024-01-07T12:49:38;26.30;;;11.85;;
23406;SDS011;11876;53.438;18.942;2024-01-07T12:52:41;28.20;;;14.40;;
23406;SDS011;11876;53.438;18.942;2024-01-07T12:55:43;19.20;;;11.32;;
23406;SDS011;11876;53.438;18.942;2024-01-07T12:58:46;30.92;;;18.35;;
23406;SDS011;11876;53.438;18.942;2024-01-07T13:01:48;26.65;;;14.07;;
23406;SDS011;11876;53.438;18.942;2024-01-07T13:04:53;26.47;;;14.73;;
23406;SDS011;11876;53.438;18.942;2024-01-07T13:07:55;22.52;;;12.65;;
23406;SDS011;11876;53.438;18.942;2024-01-07T13:10:58;18.98;;;9.93;;
23406;SDS011;11876;53.438;18.942;2024-01-07T13:14:02;25.73;;;13.13;;
23406;SDS011;11876;53.438;18.942;2024-01-07T13:17:05;23.63;;;13.77;;
23406;SDS011;11876;53.438;18.942;2024-01-07T13:20:07;25.95;;;14.05;;
23406;SDS011;11876;53.438;18.942;2024-01-07T13:23:13;30.37;;;16.63;;
23406;SDS011;11876;53.438;18.942;2024-01-07T13:26:16;20.58;;;12.90;;
23406;SDS011;11876;53.438;18.942;2024-01-07T13:29:18;21.17;;;13.02;;
23406;SDS011;11876;53.438;18.942;2024-01-07T13:32:21;21.60;;;12.77;;
23406;SDS011;11876;53.438;18.942;2024-01-07T13:35:23;16.83;;;10.88;;
23406;SDS011;11876;53.438;18.942;2024-01-07T13:38:27;28.67;;;14.77;;
23406;SDS011;11876;53.438;18.942;2024-01-07T13:41:29;22.00;;;13.10;;
23406;SDS011;11876;53.438;18.942;2024-01-07T13:44:34;27.63;;;13.20;;
23406;SDS011;11876;53.438;18.942;2024-01-07T13:47:36;16.92;;;10.82;;
23406;SDS011;11876;53.438;18.942;2024-01-07T13:50:39;21.75;;;12.88;;
23406;SDS011;11876;53.438;18.942;2024-01-07T13:53:41;24.88;;;15.57;;
23406;SDS011;11876;53.438;18.942;2024-01-07T13:56:43;24.63;;;12.35;;
23406;SDS011;11876;53.438;18.942;2024-01-07T13:59:47;21.33;;;12.33;;
23406;SDS011;11876;53.438;18.942;2024-01-07T14:02:50;21.45;;;12.50;;
23406;SDS011;11876;53.438;18.942;2024-01-07T14:05:53;38.72;;;23.17;;
23406;SDS011;11876;53.438;18.942;2024-01-07T14:11:58;27.87;;;14.97;;
23406;SDS011;11876;53.438;18.942;2024-01-07T14:15:01;21.40;;;10.32;;
23406;SDS011;11876;53.438;18.942;2024-01-07T14:18:04;20.30;;;10.67;;
23406;SDS011;11876;53.438;18.942;2024-01-07T14:21:11;21.43;;;12.27;;
23406;SDS011;11876;53.438;18.942;2024-01-07T14:24:14;26.75;;;10.63;;
23406;SDS011;11876;53.438;18.942;2024-01-07T14:27:16;31.70;;;13.13;;
23406;SDS011;11876;53.438;18.942;2024-01-07T14:30:19;27.38;;;14.63;;
23406;SDS011;11876;53.438;18.942;2024-01-07T14:33:22;17.08;;;10.57;;
23406;SDS011;11876;53.438;18.942;2024-01-07T14:36:26;22.63;;;12.30;;
23406;SDS011;11876;53.438;18.942;2024-01-07T14:39:28;23.70;;;12.77;;
23406;SDS011;11876;53.438;18.942;2024-01-07T14:42:31;23.67;;;13.82;;
23406;SDS011;11876;53.438;18.942;2024-01-07T14:45:34;27.73;;;15.27;;
23406;SDS011;11876;53.438;18.942;2024-01-07T14:48:37;27.67;;;15.63;;
23406;SDS011;11876;53.438;18.942;2024-01-07T14:51:39;26.90;;;13.98;;
23406;SDS011;11876;53.438;18.942;2024-01-07T14:54:42;21.35;;;11.80;;
23406;SDS011;11876;53.438;18.942;2024-01-07T14:57:45;32.20;;;15.83;;
23406;SDS011;11876;53.438;18.942;2024-01-07T15:00:49;26.53;;;15.23;;
23406;SDS011;11876;53.438;18.942;2024-01-07T15:03:52;29.83;;;15.80;;
23406;SDS011;11876;53.438;18.942;2024-01-07T15:06:55;22.25;;;12.65;;
23406;SDS011;11876;53.438;18.942;2024-01-07T15:13:02;24.40;;;12.87;;
23406;SDS011;11876;53.438;18.942;2024-01-07T15:16:18;23.63;;;12.70;;
23406;SDS011;11876;53.438;18.942;2024-01-07T15:19:21;23.70;;;13.70;;
23406;SDS011;11876;53.438;18.942;2024-01-07T15:22:25;22.33;;;11.87;;
23406;SDS011;11876;53.438;18.942;2024-01-07T15:28:31;25.02;;;13.13;;
23406;SDS011;11876;53.438;18.942;2024-01-07T15:31:35;26.90;;;14.00;;
23406;SDS011;11876;53.438;18.942;2024-01-07T15:34:38;28.17;;;13.50;;
23406;SDS011;11876;53.438;18.942;2024-01-07T15:40:44;25.77;;;13.98;;
23406;SDS011;11876;53.438;18.942;2024-01-07T15:43:47;21.85;;;12.57;;
23406;SDS011;11876;53.438;18.942;2024-01-07T15:46:50;24.57;;;13.37;;
23406;SDS011;11876;53.438;18.942;2024-01-07T15:49:54;30.90;;;13.93;;
23406;SDS011;11876;53.438;18.942;2024-01-07T15:52:56;18.17;;;10.63;;
23406;SDS011;11876;53.438;18.942;2024-01-07T15:56:01;26.13;;;11.60;;
23406;SDS011;11876;53.438;18.942;2024-01-07T15:59:04;17.90;;;10.30;;
23406;SDS011;11876;53.438;18.942;2024-01-07T16:02:07;20.80;;;10.48;;
23406;SDS011;11876;53.438;18.942;2024-01-07T16:05:10;21.05;;;11.90;;
23406;SDS011;11876;53.438;18.942;2024-01-07T16:11:18;19.13;;;9.63;;
23406;SDS011;11876;53.438;18.942;2024-01-07T16:14:24;22.50;;;12.77;;
23406;SDS011;11876;53.438;18.942;2024-01-07T16:17:29;27.30;;;13.00;;
23406;SDS011;11876;53.438;18.942;2024-01-07T16:20:32;23.95;;;10.95;;
23406;SDS011;11876;53.438;18.942;2024-01-07T16:23:36;26.23;;;11.80;;
23406;SDS011;11876;53.438;18.942;2024-01-07T16:26:40;21.83;;;10.97;;
23406;SDS011;11876;53.438;18.942;2024-01-07T16:29:47;25.17;;;11.53;;
23406;SDS011;11876;53.438;18.942;2024-01-07T16:32:50;22.37;;;12.10;;
23406;SDS011;11876;53.438;18.942;2024-01-07T16:35:52;22.13;;;10.57;;
23406;SDS011;11876;53.438;18.942;2024-01-07T16:38:55;19.73;;;11.02;;
23406;SDS011;11876;53.438;18.942;2024-01-07T16:42:01;24.10;;;12.10;;
23406;SDS011;11876;53.438;18.942;2024-01-07T16:45:04;27.92;;;12.80;;
23406;SDS011;11876;53.438;18.942;2024-01-07T16:48:10;45.17;;;23.17;;
23406;SDS011;11876;53.438;18.942;2024-01-07T16:51:35;48.83;;;25.20;;
23406;SDS011;11876;53.438;18.942;2024-01-07T16:54:38;28.10;;;13.57;;
23406;SDS011;11876;53.438;18.942;2024-01-07T16:57:41;22.48;;;12.18;;
23406;SDS011;11876;53.438;18.942;2024-01-07T17:00:46;27.00;;;13.50;;
23406;SDS011;11876;53.438;18.942;2024-01-07T17:03:48;27.27;;;12.38;;
23406;SDS011;11876;53.438;18.942;2024-01-07T17:06:51;22.67;;;13.52;;
23406;SDS011;11876;53.438;18.942;2024-01-07T17:09:54;28.90;;;13.52;;
23406;SDS011;11876;53.438;18.942;2024-01-07T17:12:56;22.70;;;12.15;;
23406;SDS011;11876;53.438;18.942;2024-01-07T17:15:59;25.80;;;13.13;;
23406;SDS011;11876;53.438;18.942;2024-01-07T17:22:04;23.07;;;12.10;;
23406;SDS011;11876;53.438;18.942;2024-01-07T17:25:07;21.65;;;10.40;;
23406;SDS011;11876;53.438;18.942;2024-01-07T17:28:09;16.85;;;8.90;;
23406;SDS011;11876;53.438;18.942;2024-01-07T17:31:12;17.83;;;9.32;;
23406;SDS011;11876;53.438;18.942;2024-01-07T17:34:14;22.65;;;11.90;;
23406;SDS011;11876;53.438;18.942;2024-01-07T17:37:17;25.88;;;13.13;;
23406;SDS011;11876;53.438;18.942;2024-01-07T17:40:19;29.85;;;14.77;;
23406;SDS011;11876;53.438;18.942;2024-01-07T17:43:22;23.67;;;12.10;;
23406;SDS011;11876;53.438;18.942;2024-01-07T17:46:25;27.58;;;12.60;;
23406;SDS011;11876;53.438;18.942;2024-01-07T17:49:27;24.50;;;10.50;;
23406;SDS011;11876;53.438;18.942;2024-01-07T17:52:30;40.88;;;23.00;;
23406;SDS011;11876;53.438;18.942;2024-01-07T17:55:34;28.23;;;16.17;;
23406;SDS011;11876;53.438;18.942;2024-01-07T17:58:38;28.23;;;14.53;;
23406;SDS011;11876;53.438;18.942;2024-01-07T18:01:44;28.50;;;14.02;;
23406;SDS011;11876;53.438;18.942;2024-01-07T18:04:50;26.70;;;14.97;;
23406;SDS011;11876;53.438;18.942;2024-01-07T18:07:52;21.30;;;13.07;;
23406;SDS011;11876;53.438;18.942;2024-01-07T18:10:54;33.67;;;15.35;;
23406;SDS011;11876;53.438;18.942;2024-01-07T18:13:57;49.35;;;19.85;;
23406;SDS011;11876;53.438;18.942;2024-01-07T18:16:59;114.90;;;42.40;;
23406;SDS011;11876;53.438;18.942;2024-01-07T18:20:02;70.88;;;23.90;;
23406;SDS011;11876;53.438;18.942;2024-01-07T18:23:05;34.10;;;16.35;;
23406;SDS011;11876;53.438;18.942;2024-01-07T18:26:12;27.97;;;13.80;;
23406;SDS011;11876;53.438;18.942;2024-01-07T18:29:14;48.88;;;22.27;;